Time;durP1;ratioP1;P1;durP2;ratioP2;P2;SDS_P1;SDS_P2;PMS_P1;PMS_P2;Temp;Humidity;BMP_temperature;BMP_pressure;BME280_temperature;BME280_humidity;BME280_pressure;Samples;Min_cycle;Max_cycle;Signal;HPM_P1;HPM_P2
2022/02/21 00:02:04;;;;;;;15.73;2.08;;;7.00;99.90;;;;;;5134726;27;20074;-75
2022/02/21 00:04:29;;;;;;;8.02;1.67;;;7.00;99.90;;;;;;5134412;27;20114;-75
2022/02/21 00:06:55;;;;;;;6.43;1.65;;;7.00;99.90;;;;;;5133218;27;20401;-76
2022/02/21 00:09:21;;;;;;;14.10;2.20;;;7.00;99.90;;;;;;5134263;27;20034;-76
2022/02/21 00:11:46;;;;;;;8.98;1.80;;;7.00;99.90;;;;;;5133476;27;20102;-77
2022/02/21 00:14:12;;;;;;;18.13;2.63;;;7.00;99.90;;;;;;5133790;27;20051;-77
2022/02/21 00:16:37;;;;;;;16.25;2.38;;;6.90;99.90;;;;;;5134290;27;20025;-77
2022/02/21 00:19:03;;;;;;;9.75;2.00;;;6.90;99.90;;;;;;5134734;27;20041;-76
2022/02/21 00:21:31;;;;;;;12.23;2.40;;;6.90;99.90;;;;;;5133524;27;20041;-77
2022/02/21 00:23:57;;;;;;;20.80;2.50;;;6.90;99.90;;;;;;5134272;27;20293;-75
2022/02/21 00:26:22;;;;;;;8.80;2.13;;;6.90;99.90;;;;;;5134773;28;20011;-76
2022/02/21 00:28:49;;;;;;;11.90;3.10;;;6.80;99.90;;;;;;5133773;28;20388;-76
2022/02/21 00:31:15;;;;;;;15.85;1.95;;;6.90;99.90;;;;;;5134352;28;20061;-77
2022/02/21 00:33:41;;;;;;;11.68;2.42;;;6.80;99.90;;;;;;5134149;28;20050;-76
2022/02/21 00:36:07;;;;;;;12.70;2.55;;;6.80;99.90;;;;;;5133577;27;20076;-77
2022/02/21 00:38:33;;;;;;;15.65;2.30;;;6.70;99.90;;;;;;5134326;28;20027;-76
2022/02/21 00:40:59;;;;;;;10.85;2.15;;;6.70;99.90;;;;;;5133446;28;20015;-76
2022/02/21 00:43:25;;;;;;;12.95;2.38;;;6.60;99.90;;;;;;5133487;28;20121;-76
2022/02/21 00:45:50;;;;;;;14.00;3.65;;;6.60;99.90;;;;;;5134063;28;20030;-76
2022/02/21 00:48:16;;;;;;;8.75;1.70;;;6.60;99.90;;;;;;5134143;28;20485;-76
2022/02/21 00:50:42;;;;;;;6.28;1.60;;;6.60;99.90;;;;;;5133103;27;20114;-75
2022/02/21 00:53:07;;;;;;;8.57;1.17;;;6.60;99.90;;;;;;5134167;27;20028;-76
2022/02/21 00:55:34;;;;;;;7.50;1.42;;;6.40;99.90;;;;;;5133803;27;20019;-75
2022/02/21 00:58:01;;;;;;;10.73;1.40;;;6.40;99.90;;;;;;5133675;27;20049;-77
2022/02/21 01:00:27;;;;;;;9.63;2.53;;;6.40;99.90;;;;;;5134239;28;20359;-77
2022/02/21 01:02:53;;;;;;;11.57;1.75;;;6.40;99.90;;;;;;5133028;28;20031;-77
2022/02/21 01:05:19;;;;;;;7.38;1.75;;;6.40;99.90;;;;;;5133959;27;20375;-76
2022/02/21 01:07:44;;;;;;;14.60;2.47;;;6.40;99.90;;;;;;5133112;28;20043;-75
2022/02/21 01:10:10;;;;;;;20.13;2.35;;;6.50;99.90;;;;;;5132993;27;20030;-75
2022/02/21 01:12:36;;;;;;;18.67;2.35;;;6.50;99.90;;;;;;5133855;27;20031;-76
2022/02/21 01:15:03;;;;;;;8.75;1.83;;;6.40;99.90;;;;;;5132983;28;20059;-75
2022/02/21 01:17:29;;;;;;;8.40;2.10;;;6.40;99.90;;;;;;5133521;27;20031;-76
2022/02/21 01:19:54;;;;;;;3.28;1.23;;;6.50;99.90;;;;;;5133473;28;20482;-76
2022/02/21 01:22:20;;;;;;;8.80;1.73;;;6.40;99.90;;;;;;5136355;27;20023;-76
2022/02/21 01:24:45;;;;;;;9.63;1.90;;;6.40;99.90;;;;;;5136962;27;20027;-76
2022/02/21 01:27:14;;;;;;;11.23;1.83;;;6.40;99.90;;;;;;5137172;27;20037;-76
2022/02/21 01:29:40;;;;;;;17.23;1.50;;;6.40;99.90;;;;;;5137870;27;20178;-76
2022/02/21 01:32:07;;;;;;;7.75;1.85;;;6.40;99.90;;;;;;5137176;27;20019;-76
2022/02/21 01:34:32;;;;;;;23.17;2.35;;;6.40;99.90;;;;;;5137164;27;20089;-75
2022/02/21 01:36:58;;;;;;;17.13;2.22;;;6.40;99.90;;;;;;5137667;27;20027;-76
2022/02/21 01:39:24;;;;;;;15.05;1.90;;;6.40;99.90;;;;;;5136976;27;20075;-76
2022/02/21 01:41:49;;;;;;;23.73;2.35;;;6.40;99.90;;;;;;5140940;27;20587;-74
2022/02/21 01:44:15;;;;;;;19.40;2.67;;;6.40;99.90;;;;;;5143629;27;20035;-75
2022/02/21 01:46:42;;;;;;;15.90;3.47;;;6.30;99.90;;;;;;5137312;27;20386;-75
2022/02/21 01:49:09;;;;;;;14.00;1.83;;;6.30;99.90;;;;;;5137313;27;20023;-76
2022/02/21 01:51:35;;;;;;;39.22;5.18;;;6.20;99.90;;;;;;5137000;27;20466;-75
2022/02/21 01:54:04;;;;;;;3.63;1.13;;;6.30;99.90;;;;;;5136709;27;20072;-78
2022/02/21 01:56:30;;;;;;;5.38;1.15;;;6.30;99.90;;;;;;5137784;27;20020;-75
2022/02/21 01:58:55;;;;;;;8.15;1.83;;;6.30;99.90;;;;;;5136706;27;20023;-76
2022/02/21 02:01:21;;;;;;;15.50;3.38;;;6.20;99.90;;;;;;5137323;27;20072;-76
2022/02/21 02:03:47;;;;;;;8.05;1.67;;;6.30;99.90;;;;;;5137107;27;20095;-75
2022/02/21 02:06:13;;;;;;;13.68;2.25;;;6.20;99.90;;;;;;5136665;27;20366;-76
2022/02/21 02:08:39;;;;;;;5.50;1.13;;;6.20;99.90;;;;;;5136418;27;20047;-77
2022/02/21 02:11:05;;;;;;;7.40;2.00;;;6.20;99.90;;;;;;5137081;27;20087;-75
2022/02/21 02:13:30;;;;;;;5.32;1.17;;;6.20;99.90;;;;;;5136377;27;20402;-75
2022/02/21 02:15:56;;;;;;;7.20;1.50;;;6.20;99.90;;;;;;5136652;27;20030;-75
2022/02/21 02:18:22;;;;;;;11.90;2.30;;;6.20;99.90;;;;;;5136849;27;20034;-75
2022/02/21 02:20:48;;;;;;;5.13;1.52;;;6.20;99.90;;;;;;5135548;27;20042;-76
2022/02/21 02:23:14;;;;;;;8.20;1.08;;;6.20;99.90;;;;;;5136217;27;20115;-75
2022/02/21 02:25:40;;;;;;;5.82;1.50;;;6.30;99.90;;;;;;5135573;27;20023;-78
2022/02/21 02:28:08;;;;;;;14.38;1.92;;;6.30;99.90;;;;;;5134964;27;20031;-77
2022/02/21 02:30:34;;;;;;;9.75;3.28;;;6.30;99.90;;;;;;5135796;27;20027;-76
2022/02/21 02:33:00;;;;;;;24.90;1.65;;;6.30;99.90;;;;;;5134716;27;20052;-77
2022/02/21 02:35:32;;;;;;;6.70;1.67;;;6.30;99.90;;;;;;5135427;27;20088;-76
2022/02/21 02:37:58;;;;;;;6.15;1.40;;;6.20;99.90;;;;;;5136007;27;20027;-77
2022/02/21 02:40:24;;;;;;;12.60;1.50;;;6.20;99.90;;;;;;5136043;27;20110;-77
2022/02/21 02:42:52;;;;;;;12.00;2.60;;;6.20;99.90;;;;;;5135166;27;20118;-76
2022/02/21 02:45:18;;;;;;;7.63;1.35;;;6.30;99.90;;;;;;5136570;27;20019;-77
2022/02/21 02:47:43;;;;;;;4.80;1.08;;;6.30;99.90;;;;;;5135491;27;20110;-76
2022/02/21 02:50:09;;;;;;;5.82;1.48;;;6.20;99.90;;;;;;5135507;27;20023;-76
2022/02/21 02:52:35;;;;;;;9.15;2.20;;;6.20;99.90;;;;;;5135745;27;20030;-76
2022/02/21 02:55:01;;;;;;;15.18;2.88;;;6.20;99.90;;;;;;5135372;27;20015;-75
2022/02/21 02:57:26;;;;;;;12.52;2.28;;;6.20;99.90;;;;;;5135357;27;20023;-75
2022/02/21 02:59:53;;;;;;;13.80;1.95;;;6.10;99.90;;;;;;5135397;27;20061;-76
2022/02/21 03:02:19;;;;;;;9.20;1.67;;;6.00;99.90;;;;;;5135312;27;20028;-76
2022/02/21 03:04:44;;;;;;;18.42;2.25;;;6.00;99.90;;;;;;5135066;27;20538;-77
2022/02/21 03:07:10;;;;;;;10.38;2.00;;;6.50;99.90;;;;;;5135406;27;20046;-75
2022/02/21 03:09:36;;;;;;;9.90;2.53;;;6.00;99.90;;;;;;5134855;27;20023;-77
2022/02/21 03:12:02;;;;;;;12.45;2.55;;;6.00;99.90;;;;;;5135299;27;20068;-76
2022/02/21 03:14:27;;;;;;;23.23;2.58;;;6.00;99.90;;;;;;5135394;27;20023;-76
2022/02/21 03:16:53;;;;;;;12.95;2.00;;;6.00;99.90;;;;;;5134508;27;20019;-77
2022/02/21 03:19:25;;;;;;;12.73;1.63;;;6.00;99.90;;;;;;5135203;27;20027;-76
2022/02/21 03:21:53;;;;;;;23.02;3.80;;;6.00;99.90;;;;;;5134956;27;20023;-75
2022/02/21 03:24:19;;;;;;;6.35;1.55;;;6.00;99.90;;;;;;5133964;27;20412;-75
2022/02/21 03:26:44;;;;;;;13.70;2.35;;;6.00;99.90;;;;;;5134874;27;20034;-76
2022/02/21 03:29:10;;;;;;;17.17;2.55;;;6.00;99.90;;;;;;5135267;27;20030;-75
2022/02/21 03:31:35;;;;;;;9.50;1.90;;;6.00;99.90;;;;;;5134389;27;20382;-74
2022/02/21 03:34:01;;;;;;;25.05;5.57;;;5.90;99.90;;;;;;5134589;27;20382;-76
2022/02/21 03:36:26;;;;;;;8.15;1.88;;;5.90;99.90;;;;;;5135043;27;20418;-75
2022/02/21 03:38:52;;;;;;;11.90;1.70;;;5.90;99.90;;;;;;5133781;27;20019;-75
2022/02/21 03:41:18;;;;;;;18.42;3.78;;;5.90;99.90;;;;;;5134638;27;20023;-76
2022/02/21 03:43:43;;;;;;;17.63;3.15;;;5.90;99.90;;;;;;5134708;27;20027;-75
2022/02/21 03:46:09;;;;;;;13.85;2.63;;;7.00;99.90;;;;;;5133152;27;20382;-75
2022/02/21 03:48:34;;;;;;;19.27;2.85;;;5.80;99.90;;;;;;5135210;27;20364;-76
2022/02/21 03:51:00;;;;;;;9.65;2.20;;;5.80;99.90;;;;;;5095382;28;20475;-76
2022/02/21 03:53:25;;;;;;;17.17;1.70;;;5.70;99.90;;;;;;5113166;28;20027;-75
2022/02/21 03:55:51;;;;;;;15.00;2.88;;;5.70;99.90;;;;;;5113523;28;20031;-75
2022/02/21 03:58:16;;;;;;;12.02;2.28;;;5.80;99.90;;;;;;5113841;28;20019;-75
2022/02/21 04:00:42;;;;;;;9.55;1.60;;;5.80;99.90;;;;;;5113294;28;20030;-76
2022/02/21 04:03:08;;;;;;;7.25;1.77;;;5.80;99.90;;;;;;5114007;28;20043;-77
2022/02/21 04:05:33;;;;;;;14.50;1.95;;;5.80;99.90;;;;;;5113287;28;20481;-77
2022/02/21 04:07:59;;;;;;;7.07;1.60;;;5.80;99.90;;;;;;5113657;28;20451;-76
2022/02/21 04:10:24;;;;;;;17.23;2.38;;;5.80;99.90;;;;;;5113956;28;20020;-77
2022/02/21 04:12:50;;;;;;;8.15;1.60;;;5.80;99.90;;;;;;5113244;28;20081;-76
2022/02/21 04:15:15;;;;;;;15.38;2.40;;;5.70;99.90;;;;;;5113722;28;20055;-76
2022/02/21 04:17:52;;;;;;;18.25;3.60;;;5.70;99.90;;;;;;5114007;28;20103;-76
2022/02/21 04:20:20;;;;;;;13.48;1.67;;;5.70;99.90;;;;;;5114999;28;20105;-76
2022/02/21 04:22:46;;;;;;;6.03;1.55;;;5.70;99.90;;;;;;5113870;28;20032;-76
2022/02/21 04:25:13;;;;;;;13.50;2.63;;;5.70;99.90;;;;;;5113913;28;20110;-76
2022/02/21 04:27:46;;;;;;;7.40;1.33;;;5.60;99.90;;;;;;5113179;28;20035;-76
2022/02/21 04:30:15;;;;;;;14.95;2.17;;;5.60;99.90;;;;;;5113811;28;20391;-76
2022/02/21 04:32:41;;;;;;;10.98;2.60;;;5.60;99.90;;;;;;5115504;28;20061;-76
2022/02/21 04:35:08;;;;;;;14.00;2.78;;;5.60;99.90;;;;;;5113173;28;20092;-76
2022/02/21 04:37:34;;;;;;;7.45;1.83;;;5.60;99.90;;;;;;5113308;28;20103;-76
2022/02/21 04:40:00;;;;;;;8.75;1.77;;;5.60;99.90;;;;;;5113541;28;20020;-76
2022/02/21 04:42:26;;;;;;;19.63;4.35;;;5.70;99.90;;;;;;5113200;28;20054;-77
2022/02/21 04:44:54;;;;;;;17.60;2.25;;;5.70;99.90;;;;;;5114040;28;20023;-76
2022/02/21 04:47:20;;;;;;;17.10;2.10;;;5.70;99.90;;;;;;5113931;28;20024;-75
2022/02/21 04:49:45;;;;;;;11.35;2.35;;;5.70;99.90;;;;;;5112515;28;20035;-77
2022/02/21 04:52:13;;;;;;;10.82;2.40;;;5.70;99.90;;;;;;5113013;28;20111;-74
2022/02/21 04:54:39;;;;;;;5.57;1.23;;;5.70;99.90;;;;;;5112655;28;20452;-75
2022/02/21 04:57:05;;;;;;;11.48;1.77;;;5.60;99.90;;;;;;5115576;28;20060;-75
2022/02/21 04:59:30;;;;;;;21.00;2.72;;;5.60;99.90;;;;;;5117747;28;20032;-75
2022/02/21 05:02:00;;;;;;;8.02;2.25;;;5.70;99.90;;;;;;5117207;28;20062;-74
2022/02/21 05:04:26;;;;;;;4.47;1.02;;;5.70;99.90;;;;;;5117627;28;20040;-76
2022/02/21 05:06:51;;;;;;;7.43;1.58;;;5.70;99.90;;;;;;5116959;28;20063;-75
2022/02/21 05:09:17;;;;;;;17.80;2.05;;;5.70;99.90;;;;;;5116429;28;20498;-76
2022/02/21 05:11:42;;;;;;;7.95;0.82;;;5.70;99.90;;;;;;5117385;28;20111;-76
2022/02/21 05:14:08;;;;;;;17.33;2.53;;;5.60;99.90;;;;;;5117134;28;20024;-76
2022/02/21 05:16:33;;;;;;;5.70;1.35;;;5.60;99.90;;;;;;5116867;28;20368;-76
2022/02/21 05:19:02;;;;;;;10.63;1.98;;;5.60;99.90;;;;;;5116973;28;20020;-76
2022/02/21 05:21:28;;;;;;;8.88;1.50;;;5.60;99.90;;;;;;5117129;28;20032;-77
2022/02/21 05:23:54;;;;;;;17.05;2.45;;;5.50;99.90;;;;;;5116385;28;20035;-76
2022/02/21 05:26:19;;;;;;;15.00;2.10;;;5.50;99.90;;;;;;5117111;28;20027;-76
2022/02/21 05:28:45;;;;;;;13.07;2.78;;;5.50;99.90;;;;;;5117191;28;20479;-76
2022/02/21 05:31:10;;;;;;;7.90;1.83;;;5.50;99.90;;;;;;5115713;28;20517;-76
2022/02/21 05:33:36;;;;;;;13.48;2.55;;;5.50;99.90;;;;;;5116809;28;20102;-76
2022/02/21 05:36:02;;;;;;;13.48;1.70;;;5.50;99.90;;;;;;5116582;28;20440;-76
2022/02/21 05:38:30;;;;;;;10.63;1.58;;;5.50;99.90;;;;;;5116433;28;20032;-76
2022/02/21 05:40:56;;;;;;;11.90;3.15;;;5.50;99.90;;;;;;5116426;28;20445;-75
2022/02/21 05:43:25;;;;;;;14.32;2.58;;;5.50;99.90;;;;;;5117221;28;20066;-76
2022/02/21 05:45:50;;;;;;;16.40;2.63;;;5.40;99.90;;;;;;5116357;28;20065;-75
2022/02/21 05:48:16;;;;;;;10.35;1.80;;;5.50;99.90;;;;;;5098357;28;20451;-75
2022/02/21 05:50:41;;;;;;;22.52;2.58;;;5.50;99.90;;;;;;5115869;28;20463;-76
2022/02/21 05:53:07;;;;;;;6.07;1.35;;;5.60;99.90;;;;;;5115781;28;20467;-76
2022/02/21 05:55:32;;;;;;;16.27;2.33;;;5.60;99.90;;;;;;5116912;28;20115;-76
2022/02/21 05:57:59;;;;;;;12.85;2.20;;;5.60;99.90;;;;;;5115190;28;20521;-77
2022/02/21 06:00:26;;;;;;;11.77;2.53;;;5.70;99.90;;;;;;5116179;28;20020;-76
2022/02/21 06:02:51;;;;;;;8.75;1.45;;;5.70;99.90;;;;;;5116257;28;20038;-77
2022/02/21 06:05:17;;;;;;;12.55;2.17;;;5.70;99.90;;;;;;5115384;28;20024;-75
2022/02/21 06:07:43;;;;;;;15.38;2.55;;;5.70;99.90;;;;;;5114628;28;20048;-76
2022/02/21 06:10:09;;;;;;;11.77;2.08;;;5.70;99.90;;;;;;5115766;28;20023;-76
2022/02/21 06:12:34;;;;;;;19.27;2.38;;;5.70;99.90;;;;;;5115775;28;20081;-76
2022/02/21 06:15:00;;;;;;;9.60;2.10;;;5.70;99.90;;;;;;5115675;28;20024;-75
2022/02/21 06:17:25;;;;;;;18.40;2.72;;;5.70;99.90;;;;;;5115638;28;20020;-76
2022/02/21 06:19:51;;;;;;;15.55;2.15;;;5.70;99.90;;;;;;5115558;28;20034;-77
2022/02/21 06:22:20;;;;;;;15.80;3.00;;;5.70;99.90;;;;;;5115845;28;20035;-76
2022/02/21 06:24:46;;;;;;;21.60;3.72;;;5.70;99.90;;;;;;5115912;28;20063;-76
2022/02/21 06:27:12;;;;;;;12.80;2.35;;;5.60;99.90;;;;;;5115107;28;20077;-77
2022/02/21 06:29:38;;;;;;;8.10;1.38;;;5.70;99.90;;;;;;5115172;28;20032;-76
2022/02/21 06:32:04;;;;;;;16.17;2.22;;;5.70;99.90;;;;;;5114901;28;20102;-75
2022/02/21 06:34:29;;;;;;;12.95;2.33;;;5.70;99.90;;;;;;5114384;28;20066;-76
2022/02/21 06:36:55;;;;;;;13.35;2.33;;;5.60;99.90;;;;;;5115386;28;20028;-75
2022/02/21 06:39:21;;;;;;;12.15;1.88;;;5.70;99.90;;;;;;5115462;28;20064;-75
2022/02/21 06:41:48;;;;;;;13.88;2.25;;;5.60;99.90;;;;;;5114311;28;20023;-76
2022/02/21 06:44:13;;;;;;;13.35;3.25;;;5.60;99.90;;;;;;5115069;28;20063;-75
2022/02/21 06:46:40;;;;;;;17.40;2.25;;;5.60;99.90;;;;;;5115194;28;20047;-77
2022/02/21 06:49:06;;;;;;;11.25;1.92;;;5.60;99.90;;;;;;5115201;28;20038;-75
2022/02/21 06:51:31;;;;;;;17.05;2.45;;;5.60;99.90;;;;;;5115743;28;20016;-77
2022/02/21 06:53:57;;;;;;;9.85;1.80;;;5.70;99.90;;;;;;5096565;28;20338;-77
2022/02/21 06:56:22;;;;;;;19.90;2.63;;;5.70;99.90;;;;;;5116096;28;20378;-76
2022/02/21 06:58:48;;;;;;;13.10;4.18;;;5.70;99.90;;;;;;5115330;28;20031;-77
2022/02/21 07:01:13;;;;;;;17.58;3.22;;;5.70;99.90;;;;;;5114164;28;20023;-77
2022/02/21 07:03:39;;;;;;;18.55;2.75;;;5.70;99.90;;;;;;5114635;28;20036;-78
2022/02/21 07:06:05;;;;;;;10.25;2.38;;;5.80;99.90;;;;;;5115181;28;20094;-74
2022/02/21 07:08:31;;;;;;;17.13;2.55;;;5.80;99.90;;;;;;5114075;28;20085;-74
2022/02/21 07:10:56;;;;;;;19.33;2.13;;;5.80;99.90;;;;;;5117427;28;20019;-77
2022/02/21 07:13:22;;;;;;;16.10;2.60;;;5.80;99.90;;;;;;5115572;28;20024;-77
2022/02/21 07:15:48;;;;;;;9.30;1.80;;;5.80;99.90;;;;;;5114687;28;20026;-76
2022/02/21 07:18:13;;;;;;;11.88;1.90;;;5.90;99.90;;;;;;5114459;28;20027;-77
2022/02/21 07:20:39;;;;;;;23.25;4.32;;;5.90;99.90;;;;;;5114634;28;20031;-77
2022/02/21 07:23:04;;;;;;;20.95;4.53;;;6.00;99.90;;;;;;5114292;28;20039;-77
2022/02/21 07:25:30;;;;;;;24.60;4.18;;;6.00;99.90;;;;;;5114987;28;20026;-76
2022/02/21 07:27:55;;;;;;;17.38;3.10;;;6.00;99.90;;;;;;5114731;28;20086;-75
2022/02/21 07:30:23;;;;;;;21.17;2.72;;;6.00;99.90;;;;;;5113912;28;20020;-76
2022/02/21 07:32:49;;;;;;;22.10;3.53;;;6.10;99.90;;;;;;5114346;28;20043;-76
2022/02/21 07:35:15;;;;;;;12.75;3.15;;;6.20;99.90;;;;;;5114839;28;20031;-75
2022/02/21 07:37:41;;;;;;;18.75;2.83;;;6.20;99.90;;;;;;5113694;28;20137;-77
2022/02/21 07:40:11;;;;;;;15.20;2.90;;;6.40;99.90;;;;;;5114522;28;20080;-75
2022/02/21 07:42:39;;;;;;;9.05;2.58;;;6.40;99.90;;;;;;5114661;28;20455;-77
2022/02/21 07:45:06;;;;;;;16.27;3.50;;;6.40;99.90;;;;;;5113715;28;20371;-76
2022/02/21 07:47:44;;;;;;;17.70;2.80;;;6.50;99.90;;;;;;5114595;28;20106;-77
2022/02/21 07:50:10;;;;;;;16.35;2.33;;;6.60;99.90;;;;;;5115189;28;20037;-76
2022/02/21 07:52:36;;;;;;;10.38;2.40;;;6.70;99.90;;;;;;5114302;28;20119;-77
2022/02/21 07:55:01;;;;;;;16.10;3.20;;;6.70;99.90;;;;;;5114400;28;20069;-77
2022/02/21 07:57:27;;;;;;;13.32;2.25;;;6.70;99.90;;;;;;5113854;28;20016;-76
2022/02/21 07:59:52;;;;;;;9.90;2.10;;;6.70;99.90;;;;;;5114205;28;20042;-76
2022/02/21 08:02:18;;;;;;;15.55;3.72;;;6.60;99.90;;;;;;5114463;28;20076;-79
2022/02/21 08:04:44;;;;;;;10.40;1.88;;;6.60;99.90;;;;;;5113657;28;20080;-77
2022/02/21 08:07:09;;;;;;;17.27;2.10;;;6.50;99.90;;;;;;5114157;28;20048;-76
2022/02/21 08:09:35;;;;;;;19.25;3.20;;;6.50;99.90;;;;;;5114640;28;20020;-76
2022/02/21 08:12:04;;;;;;;15.15;2.90;;;6.40;99.90;;;;;;5113611;28;20057;-77
2022/02/21 08:14:30;;;;;;;14.82;2.08;;;6.30;99.90;;;;;;5114352;28;20110;-77
2022/02/21 08:16:56;;;;;;;20.20;2.67;;;6.30;99.90;;;;;;5113416;28;20051;-76
2022/02/21 08:19:21;;;;;;;11.57;2.13;;;6.20;99.90;;;;;;5113586;28;20051;-77
2022/02/21 08:21:47;;;;;;;9.23;2.63;;;6.10;99.90;;;;;;5113825;28;20020;-76
2022/02/21 08:24:12;;;;;;;13.38;3.40;;;6.10;99.90;;;;;;5114029;28;20035;-76
2022/02/21 08:26:39;;;;;;;19.65;2.17;;;6.00;99.90;;;;;;5113203;28;20028;-75
2022/02/21 08:29:04;;;;;;;21.85;2.97;;;6.00;99.90;;;;;;5114200;28;20046;-76
2022/02/21 08:31:30;;;;;;;15.80;2.65;;;6.00;99.90;;;;;;5117335;28;20021;-75
2022/02/21 08:33:56;;;;;;;15.20;3.15;;;5.90;99.90;;;;;;5119752;28;20368;-76
2022/02/21 08:36:22;;;;;;;14.45;3.50;;;5.80;99.90;;;;;;5121739;28;20023;-78
2022/02/21 08:38:47;;;;;;;13.10;2.78;;;5.80;99.90;;;;;;5120753;28;20031;-77
2022/02/21 08:41:13;;;;;;;15.90;2.05;;;5.70;99.90;;;;;;5119838;28;20024;-78
2022/02/21 08:43:38;;;;;;;15.32;3.10;;;5.70;99.90;;;;;;5120400;28;20032;-76
2022/02/21 08:46:04;;;;;;;15.02;2.55;;;5.60;99.90;;;;;;5121227;28;20023;-76
2022/02/21 08:48:32;;;;;;;22.63;3.70;;;5.50;99.90;;;;;;5119910;28;20073;-77
2022/02/21 08:50:58;;;;;;;17.92;4.53;;;5.50;99.90;;;;;;5119942;27;20031;-77
2022/02/21 08:53:23;;;;;;;18.95;4.00;;;5.50;99.90;;;;;;5120434;28;20494;-77
2022/02/21 08:55:50;;;;;;;27.27;3.45;;;5.50;99.90;;;;;;5119190;27;20036;-76
2022/02/21 08:58:16;;;;;;;27.00;3.13;;;5.50;99.90;;;;;;5121390;28;20058;-77
2022/02/21 09:00:44;;;;;;;24.42;2.63;;;5.50;99.90;;;;;;5120007;28;20028;-76
2022/02/21 09:03:13;;;;;;;15.40;2.92;;;5.50;99.90;;;;;;5119808;28;20039;-77
2022/02/21 09:05:38;;;;;;;17.55;2.47;;;5.50;99.90;;;;;;5119952;28;20565;-77
2022/02/21 09:08:05;;;;;;;13.85;2.88;;;5.40;99.90;;;;;;5119982;28;20086;-76
2022/02/21 09:10:31;;;;;;;30.45;4.63;;;5.50;99.90;;;;;;5120270;27;20091;-77
2022/02/21 09:12:58;;;;;;;16.92;4.55;;;5.40;99.90;;;;;;5120610;28;20023;-76
2022/02/21 09:15:24;;;;;;;28.58;5.72;;;5.40;99.90;;;;;;5120374;27;20153;-75
2022/02/21 09:17:52;;;;;;;15.27;5.07;;;5.40;99.90;;;;;;5120957;28;20060;-76
2022/02/21 09:20:17;;;;;;;25.13;4.03;;;5.40;99.90;;;;;;5120777;28;20023;-74
2022/02/21 09:22:44;;;;;;;28.35;3.85;;;5.40;99.90;;;;;;5120607;28;20034;-76
2022/02/21 09:25:09;;;;;;;15.18;2.92;;;5.30;99.90;;;;;;5120861;28;20020;-77
2022/02/21 09:27:35;;;;;;;21.50;3.50;;;5.40;99.90;;;;;;5120934;28;20027;-76
2022/02/21 09:30:06;;;;;;;23.30;3.72;;;5.40;99.90;;;;;;5120857;28;20035;-76
2022/02/21 09:32:32;;;;;;;24.00;4.38;;;5.40;99.90;;;;;;5121724;28;20024;-77
2022/02/21 09:34:58;;;;;;;27.92;4.28;;;5.50;99.90;;;;;;5121372;28;20368;-76
2022/02/21 09:37:25;;;;;;;22.42;2.83;;;5.40;99.90;;;;;;5120387;28;20015;-76
2022/02/21 09:39:51;;;;;;;16.20;2.80;;;5.50;99.90;;;;;;5120731;27;20032;-76
2022/02/21 09:42:16;;;;;;;32.08;6.03;;;5.60;99.90;;;;;;5120015;28;20505;-78
2022/02/21 09:44:43;;;;;;;15.05;2.92;;;5.60;99.90;;;;;;5116534;28;20107;-75
2022/02/21 09:47:13;;;;;;;20.85;3.42;;;5.60;99.90;;;;;;5117305;28;20031;-76
2022/02/21 09:49:38;;;;;;;17.92;2.97;;;5.60;99.90;;;;;;5116982;28;20034;-77
2022/02/21 09:52:04;;;;;;;25.13;4.63;;;5.60;99.90;;;;;;5116601;28;20102;-77
2022/02/21 09:54:30;;;;;;;25.52;7.13;;;5.70;99.90;;;;;;5117199;28;20027;-77
2022/02/21 09:56:56;;;;;;;31.45;4.15;;;5.70;99.90;;;;;;5116884;28;20149;-76
2022/02/21 09:59:22;;;;;;;27.27;4.28;;;5.70;99.90;;;;;;5116817;28;20034;-76
2022/02/21 10:01:49;;;;;;;12.55;3.00;;;5.70;99.90;;;;;;5116616;28;20027;-77
2022/02/21 10:04:27;;;;;;;19.08;4.13;;;5.70;99.90;;;;;;5116325;28;20031;-78
2022/02/21 10:06:55;;;;;;;20.20;5.43;;;5.70;99.90;;;;;;5116720;28;20040;-76
2022/02/21 10:09:24;;;;;;;36.50;4.28;;;5.80;99.90;;;;;;5116707;28;20047;-77
2022/02/21 10:11:50;;;;;;;25.10;3.88;;;5.90;99.90;;;;;;5116878;28;20034;-75
2022/02/21 10:14:21;;;;;;;29.70;3.90;;;6.00;99.90;;;;;;5117125;28;20024;-75
2022/02/21 10:16:51;;;;;;;35.95;4.03;;;6.10;99.90;;;;;;5116857;28;20016;-78
2022/02/21 10:19:20;;;;;;;40.90;5.38;;;6.10;99.90;;;;;;5116408;28;20123;-77
2022/02/21 10:21:50;;;;;;;27.77;5.55;;;6.30;99.90;;;;;;5117357;28;20096;-76
2022/02/21 10:24:16;;;;;;;29.47;5.07;;;6.30;99.90;;;;;;5098627;28;20031;-77
2022/02/21 10:26:42;;;;;;;40.00;5.03;;;6.30;99.90;;;;;;5114819;28;20161;-76
2022/02/21 10:29:08;;;;;;;40.55;6.75;;;6.30;99.90;;;;;;5115991;28;20110;-77
2022/02/21 10:31:34;;;;;;;19.58;3.17;;;6.40;99.90;;;;;;5115864;28;20051;-77
2022/02/21 10:34:01;;;;;;;24.60;5.20;;;6.30;99.90;;;;;;5115231;28;20051;-77
2022/02/21 10:36:34;;;;;;;27.65;4.97;;;6.40;99.90;;;;;;5115705;28;20398;-77
2022/02/21 10:39:03;;;;;;;29.80;5.13;;;6.40;99.90;;;;;;5115216;28;20035;-76
2022/02/21 10:41:53;;;;;;;23.52;4.03;;;6.40;99.90;;;;;;5115492;28;20055;-77
2022/02/21 10:44:23;;;;;;;40.08;5.13;;;6.40;99.90;;;;;;5115605;28;20442;-77
2022/02/21 10:47:11;;;;;;;24.90;3.85;;;6.50;99.90;;;;;;5115247;28;20019;-77
2022/02/21 10:49:43;;;;;;;26.92;3.97;;;6.50;99.90;;;;;;5115828;28;20027;-76
2022/02/21 10:52:18;;;;;;;17.63;3.63;;;6.60;99.90;;;;;;5115709;28;20099;-76
2022/02/21 10:54:44;;;;;;;40.85;7.25;;;6.70;99.90;;;;;;5114528;28;20020;-77
2022/02/21 10:57:13;;;;;;;22.02;3.72;;;6.70;99.90;;;;;;5115899;28;20078;-78
2022/02/21 10:59:39;;;;;;;44.17;4.97;;;6.90;99.90;;;;;;5115703;28;20379;-77
2022/02/21 11:02:07;;;;;;;29.77;4.20;;;6.90;99.90;;;;;;5115102;28;20096;-76
2022/02/21 11:04:37;;;;;;;17.83;3.90;;;7.00;99.90;;;;;;5116017;28;20471;-77
2022/02/21 11:07:03;;;;;;;30.15;4.50;;;6.90;99.90;;;;;;5115973;28;20044;-78
2022/02/21 11:09:30;;;;;;;33.03;4.45;;;7.00;99.90;;;;;;5115417;28;20031;-77
2022/02/21 11:12:02;;;;;;;33.67;5.03;;;7.00;99.90;;;;;;5115796;28;20417;-76
2022/02/21 11:14:29;;;;;;;30.90;6.32;;;7.00;99.90;;;;;;5115647;28;20026;-75
2022/02/21 11:17:02;;;;;;;26.73;4.75;;;7.00;99.90;;;;;;5115334;28;20114;-75
2022/02/21 11:19:28;;;;;;;26.58;3.20;;;7.10;99.90;;;;;;5115538;28;20030;-76
2022/02/21 11:21:54;;;;;;;29.50;4.75;;;7.10;99.90;;;;;;5114628;28;20379;-76
2022/02/21 11:24:29;;;;;;;29.27;5.10;;;7.20;99.90;;;;;;5115460;28;20028;-77
2022/02/21 11:27:27;;;;;;;35.83;6.53;;;7.20;99.90;;;;;;5114972;28;20481;-75
2022/02/21 11:30:18;;;;;;;18.42;3.13;;;7.30;99.90;;;;;;5114338;28;20026;-76
2022/02/21 11:33:02;;;;;;;;;;;7.40;99.90;;;;;;5115658;28;20038;-76
2022/02/21 11:35:28;;;;;;;35.65;3.95;;;7.50;99.90;;;;;;5114713;28;19908;-77
2022/02/21 11:38:14;;;;;;;22.02;2.72;;;7.50;99.90;;;;;;5114251;28;20085;-75
2022/02/21 11:40:52;;;;;;;14.07;2.53;;;7.50;99.90;;;;;;5114490;28;20027;-77
2022/02/21 11:43:47;;;;;;;34.92;3.85;;;7.50;99.90;;;;;;5114647;28;20096;-75
2022/02/21 11:46:24;;;;;;;22.67;3.58;;;7.60;99.90;;;;;;5115123;28;20066;-76
2022/02/21 11:49:01;;;;;;;28.15;4.07;;;7.60;99.90;;;;;;5114588;28;20103;-77
2022/02/21 11:51:37;;;;;;;27.63;3.03;;;7.70;99.90;;;;;;5113589;28;20096;-76
2022/02/21 11:54:12;;;;;;;16.33;3.13;;;7.80;99.90;;;;;;5114318;28;20072;-76
2022/02/21 11:56:58;;;;;;;22.88;4.10;;;7.90;99.90;;;;;;5113954;28;20026;-78
2022/02/21 11:59:28;;;;;;;18.35;3.20;;;8.00;99.90;;;;;;5114459;28;20042;-77
2022/02/21 12:02:12;;;;;;;14.48;3.08;;;8.00;99.90;;;;;;5113955;28;20046;-76
2022/02/21 12:04:59;;;;;;;24.85;3.78;;;8.10;99.90;;;;;;5113020;28;20479;-76
2022/02/21 12:07:32;;;;;;;20.98;2.78;;;8.10;99.90;;;;;;5114637;28;20101;-76
2022/02/21 12:10:24;;;;;;;26.98;4.55;;;7.90;99.90;;;;;;5115018;28;20035;-77
2022/02/21 12:12:55;;;;;;;20.35;5.13;;;7.90;99.90;;;;;;5114313;28;20155;-76
2022/02/21 12:15:22;;;;;;;41.05;5.45;;;7.90;99.90;;;;;;5114823;28;20134;-78
2022/02/21 12:17:59;;;;;;;20.38;3.60;;;7.80;99.90;;;;;;5113650;28;20019;-76
2022/02/21 12:20:27;;;;;;;14.63;3.58;;;7.90;99.90;;;;;;5117868;28;20027;-77
2022/02/21 12:23:05;;;;;;;21.55;3.75;;;7.80;99.90;;;;;;5114847;28;20078;-76
2022/02/21 12:25:40;;;;;;;24.52;2.72;;;7.60;99.90;;;;;;5116058;28;20018;-76
2022/02/21 12:28:23;;;;;;;21.17;2.97;;;7.40;99.90;;;;;;5115003;28;20057;-76
2022/02/21 12:30:59;;;;;;;20.85;4.13;;;7.50;99.90;;;;;;5114702;28;20095;-77
2022/02/21 12:33:26;;;;;;;11.70;2.47;;;7.60;99.90;;;;;;5113861;28;20065;-76
2022/02/21 12:36:03;;;;;;;19.48;2.53;;;7.70;99.90;;;;;;5113381;28;20394;-76
2022/02/21 12:38:33;;;;;;;17.02;2.55;;;7.80;99.90;;;;;;5114089;28;20390;-76
2022/02/21 12:41:04;;;;;;;17.35;2.10;;;7.80;99.90;;;;;;5112747;28;20031;-75
2022/02/21 12:44:04;;;;;;;11.27;1.73;;;7.80;99.90;;;;;;5113841;28;20043;-76
2022/02/21 12:46:31;;;;;;;32.30;2.63;;;7.80;99.90;;;;;;5080060;28;20499;-77
2022/02/21 12:48:57;;;;;;;10.88;2.50;;;7.80;99.90;;;;;;5113074;28;20081;-77
2022/02/21 12:51:32;;;;;;;19.73;3.22;;;7.70;99.90;;;;;;5113799;28;20023;-77
2022/02/21 12:54:07;;;;;;;20.02;3.17;;;7.70;99.90;;;;;;5112515;28;20263;-76